Time;durP1;ratioP1;P1;durP2;ratioP2;P2;SDS_P1;SDS_P2;PMS_P1;PMS_P2;Temp;Humidity;BMP_temperature;BMP_pressure;BME280_temperature;BME280_humidity;BME280_pressure;Samples;Min_cycle;Max_cycle;Signal;HPM_P1;HPM_P2
2023/06/18 00:00:14;;;;;;;23.92;18.05;;;;;;;;;;5031429;28;20528;-61
2023/06/18 00:02:40;;;;;;;25.88;19.73;;;;;;;;;;5031498;28;20022;-62
2023/06/18 00:05:06;;;;;;;24.85;19.17;;;;;;;;;;5031134;28;20493;-62
2023/06/18 00:07:32;;;;;;;25.10;16.15;;;;;;;;;;5031241;28;20060;-62
2023/06/18 00:09:58;;;;;;;20.67;15.00;;;;;;;;;;5013796;28;20064;-62
2023/06/18 00:12:24;;;;;;;23.67;15.02;;;;;;;;;;5013679;28;20378;-62
2023/06/18 00:14:50;;;;;;;19.83;15.32;;;;;;;;;;5031694;28;20063;-62
2023/06/18 00:17:16;;;;;;;23.92;16.10;;;;;;;;;;5017641;28;20029;-63
2023/06/18 00:19:42;;;;;;;23.65;16.92;;;;;;;;;;5035363;28;20040;-62
2023/06/18 00:22:09;;;;;;;22.80;16.27;;;;;;;;;;5035369;28;20025;-62
2023/06/18 00:24:35;;;;;;;22.70;16.45;;;;;;;;;;5034822;28;20105;-62
2023/06/18 00:27:01;;;;;;;22.40;16.05;;;;;;;;;;5035131;28;20061;-62
2023/06/18 00:29:29;;;;;;;24.85;15.23;;;;;;;;;;5035258;28;20452;-62
2023/06/18 00:31:55;;;;;;;22.08;15.80;;;;;;;;;;5017319;28;20021;-62
2023/06/18 00:34:32;;;;;;;21.83;16.48;;;;;;;;;;5016854;28;20067;-61
2023/06/18 00:36:59;;;;;;;32.08;27.00;;;;;;;;;;5035056;28;20052;-62
2023/06/18 00:39:25;;;;;;;29.33;21.70;;;;;;;;;;5034953;28;20477;-61
2023/06/18 00:41:51;;;;;;;22.58;17.30;;;;;;;;;;5034769;28;20064;-61
2023/06/18 00:44:21;;;;;;;26.17;20.58;;;;;;;;;;5034569;28;20056;-63
2023/06/18 00:46:51;;;;;;;32.22;25.65;;;;;;;;;;5034934;28;20022;-63
2023/06/18 00:49:18;;;;;;;27.25;21.33;;;;;;;;;;5016984;28;20075;-62
2023/06/18 00:51:45;;;;;;;23.35;16.67;;;;;;;;;;5017176;28;20393;-63
2023/06/18 00:54:13;;;;;;;26.80;17.98;;;;;;;;;;5034440;28;20032;-63
2023/06/18 00:56:50;;;;;;;27.33;18.88;;;;;;;;;;5034710;28;20068;-63
2023/06/18 00:59:23;;;;;;;23.70;17.33;;;;;;;;;;5034332;28;20402;-62
2023/06/18 01:01:51;;;;;;;24.95;16.27;;;;;;;;;;5053793;28;20032;-63
2023/06/18 01:04:17;;;;;;;28.23;17.17;;;;;;;;;;5053245;28;20104;-62
2023/06/18 01:06:43;;;;;;;24.55;17.88;;;;;;;;;;5054096;28;20779;-61
2023/06/18 01:09:12;;;;;;;26.52;17.92;;;;;;;;;;5054176;28;20025;-63
2023/06/18 01:11:40;;;;;;;25.30;17.33;;;;;;;;;;5053967;28;20009;-62
2023/06/18 01:14:09;;;;;;;23.95;17.30;;;;;;;;;;5053763;28;20102;-62
2023/06/18 01:16:36;;;;;;;24.38;18.05;;;;;;;;;;5055123;28;20032;-64
2023/06/18 01:19:03;;;;;;;24.63;17.55;;;;;;;;;;5054127;28;20401;-62
2023/06/18 01:21:31;;;;;;;25.63;16.48;;;;;;;;;;5055378;28;20393;-62
2023/06/18 01:24:08;;;;;;;26.50;18.17;;;;;;;;;;5053699;28;20099;-62
2023/06/18 01:26:35;;;;;;;27.33;17.73;;;;;;;;;;5053545;28;20021;-63
2023/06/18 01:29:01;;;;;;;25.50;17.65;;;;;;;;;;5053898;28;20222;-63
2023/06/18 01:31:36;;;;;;;24.20;16.55;;;;;;;;;;5036252;28;20379;-63
2023/06/18 01:34:03;;;;;;;22.88;16.60;;;;;;;;;;5053867;28;20017;-62
2023/06/18 01:36:39;;;;;;;24.50;17.27;;;;;;;;;;5036037;28;20021;-63
2023/06/18 01:39:25;;;;;;;23.15;16.30;;;;;;;;;;5036208;28;20044;-63
2023/06/18 01:41:57;;;;;;;24.52;16.98;;;;;;;;;;5022683;28;20099;-62
2023/06/18 01:44:24;;;;;;;24.02;17.15;;;;;;;;;;5053365;28;20478;-62
2023/06/18 01:46:52;;;;;;;23.02;16.40;;;;;;;;;;5053546;28;20053;-62
2023/06/18 01:49:20;;;;;;;24.77;16.25;;;;;;;;;;5053644;28;20370;-63
2023/06/18 01:51:46;;;;;;;26.67;17.42;;;;;;;;;;5035819;28;20024;-63
2023/06/18 01:54:12;;;;;;;25.00;18.23;;;;;;;;;;5053187;28;20104;-63
2023/06/18 01:56:38;;;;;;;26.00;17.02;;;;;;;;;;5053476;28;20039;-63
2023/06/18 01:59:04;;;;;;;26.52;17.50;;;;;;;;;;5053481;28;20062;-62
2023/06/18 02:01:31;;;;;;;22.98;17.42;;;;;;;;;;5053288;28;20098;-62
2023/06/18 02:03:57;;;;;;;25.42;17.15;;;;;;;;;;5053103;28;20528;-62
2023/06/18 02:06:23;;;;;;;26.90;16.70;;;;;;;;;;5053248;28;20477;-63
2023/06/18 02:08:49;;;;;;;23.65;17.33;;;;;;;;;;5053242;28;20037;-61
2023/06/18 02:11:15;;;;;;;22.90;16.63;;;;;;;;;;5053142;28;20017;-61
2023/06/18 02:13:41;;;;;;;24.40;16.80;;;;;;;;;;5053003;28;20021;-62
2023/06/18 02:16:07;;;;;;;30.13;18.40;;;;;;;;;;5052580;28;20076;-61
2023/06/18 02:18:33;;;;;;;25.08;17.05;;;;;;;;;;5053007;28;20037;-61
2023/06/18 02:21:00;;;;;;;26.90;16.50;;;;;;;;;;5053057;28;20497;-61
2023/06/18 02:23:25;;;;;;;24.38;16.70;;;;;;;;;;5035213;28;20127;-61
2023/06/18 02:25:51;;;;;;;22.70;16.40;;;;;;;;;;5051280;28;20569;-60
2023/06/18 02:28:17;;;;;;;25.88;17.38;;;;;;;;;;5031304;28;20048;-61
2023/06/18 02:30:43;;;;;;;26.88;16.95;;;;;;;;;;5033967;28;20025;-62
2023/06/18 02:33:10;;;;;;;24.52;16.73;;;;;;;;;;5047496;28;20486;-61
2023/06/18 02:35:36;;;;;;;28.10;18.42;;;;;;;;;;5052317;28;20017;-64
2023/06/18 02:38:02;;;;;;;22.42;16.10;;;;;;;;;;5029993;28;20036;-62
2023/06/18 02:40:28;;;;;;;23.75;16.23;;;;;;;;;;5044081;28;20036;-62
2023/06/18 02:42:54;;;;;;;25.50;16.50;;;;;;;;;;5034899;28;20029;-61
2023/06/18 02:45:22;;;;;;;25.33;17.65;;;;;;;;;;5052221;28;20025;-62
2023/06/18 02:47:49;;;;;;;25.58;17.65;;;;;;;;;;5052776;28;20397;-67
2023/06/18 02:50:16;;;;;;;24.67;16.15;;;;;;;;;;5052693;28;20025;-62
2023/06/18 02:52:42;;;;;;;38.35;17.48;;;;;;;;;;5046684;28;20091;-63
2023/06/18 02:55:09;;;;;;;25.27;16.30;;;;;;;;;;5032194;28;20026;-62
2023/06/18 02:57:36;;;;;;;26.08;17.27;;;;;;;;;;5032466;28;20025;-62
2023/06/18 03:00:04;;;;;;;25.02;17.45;;;;;;;;;;5051241;28;20056;-62
2023/06/18 03:02:31;;;;;;;23.42;16.70;;;;;;;;;;5034549;28;20063;-63
2023/06/18 03:04:57;;;;;;;28.88;18.42;;;;;;;;;;5034017;28;20039;-63
2023/06/18 03:07:23;;;;;;;26.55;18.52;;;;;;;;;;5052376;28;20021;-62
2023/06/18 03:09:49;;;;;;;24.15;17.48;;;;;;;;;;5052333;28;20376;-62
2023/06/18 03:12:15;;;;;;;24.88;17.50;;;;;;;;;;5052216;28;20017;-62
2023/06/18 03:14:41;;;;;;;25.85;17.05;;;;;;;;;;5051490;28;20037;-63
2023/06/18 03:17:07;;;;;;;25.85;18.33;;;;;;;;;;5052075;28;20048;-63
2023/06/18 03:19:33;;;;;;;25.38;17.73;;;;;;;;;;5030740;28;20029;-62
2023/06/18 03:21:59;;;;;;;26.05;17.38;;;;;;;;;;5051985;28;20127;-63
2023/06/18 03:24:25;;;;;;;26.92;18.30;;;;;;;;;;5033816;28;20029;-63
2023/06/18 03:26:51;;;;;;;24.35;16.75;;;;;;;;;;5051865;28;20511;-64
2023/06/18 03:29:17;;;;;;;24.60;18.33;;;;;;;;;;5047892;28;20029;-63
2023/06/18 03:31:45;;;;;;;25.95;17.60;;;;;;;;;;5051503;28;20040;-63
2023/06/18 03:34:12;;;;;;;24.33;17.65;;;;;;;;;;5051000;28;20111;-64
2023/06/18 03:36:41;;;;;;;27.65;18.88;;;;;;;;;;5051311;28;20110;-64
2023/06/18 03:39:09;;;;;;;30.27;18.58;;;;;;;;;;5051505;28;20017;-63
2023/06/18 03:41:35;;;;;;;25.92;18.08;;;;;;;;;;5051784;28;20048;-63
2023/06/18 03:44:01;;;;;;;25.42;18.83;;;;;;;;;;5051451;28;20101;-64
2023/06/18 03:46:27;;;;;;;25.67;17.83;;;;;;;;;;5051204;28;20029;-63
2023/06/18 03:48:53;;;;;;;26.60;18.65;;;;;;;;;;5051155;28;20481;-62
2023/06/18 03:51:19;;;;;;;28.48;18.45;;;;;;;;;;5051156;28;20060;-63
2023/06/18 03:53:45;;;;;;;29.98;18.88;;;;;;;;;;5051207;28;20051;-63
2023/06/18 03:56:11;;;;;;;26.33;19.27;;;;;;;;;;5051275;28;20029;-63
2023/06/18 03:58:37;;;;;;;25.27;17.50;;;;;;;;;;5051194;28;20036;-65
2023/06/18 04:01:03;;;;;;;28.60;19.23;;;;;;;;;;5051367;28;20029;-63
2023/06/18 04:03:29;;;;;;;26.58;18.13;;;;;;;;;;5052127;28;20082;-62
2023/06/18 04:05:55;;;;;;;25.08;18.90;;;;;;;;;;5051457;28;20477;-61
2023/06/18 04:08:21;;;;;;;29.35;19.65;;;;;;;;;;5051575;28;20393;-63
2023/06/18 04:10:48;;;;;;;27.02;18.58;;;;;;;;;;5051214;28;20028;-60
2023/06/18 04:13:18;;;;;;;27.40;18.65;;;;;;;;;;5033649;28;20021;-62
2023/06/18 04:15:44;;;;;;;25.58;18.48;;;;;;;;;;5051321;28;20036;-61
2023/06/18 04:18:11;;;;;;;25.58;18.08;;;;;;;;;;5056438;28;20057;-61
2023/06/18 04:20:37;;;;;;;27.23;18.33;;;;;;;;;;5038002;28;20033;-62
2023/06/18 04:23:03;;;;;;;27.40;19.40;;;;;;;;;;5038595;28;20120;-63
2023/06/18 04:25:30;;;;;;;26.98;19.23;;;;;;;;;;5055441;28;20397;-62
2023/06/18 04:27:56;;;;;;;28.27;19.80;;;;;;;;;;5055111;28;20048;-62
2023/06/18 04:30:22;;;;;;;27.42;19.02;;;;;;;;;;5034843;28;20021;-61
2023/06/18 04:32:48;;;;;;;26.70;19.55;;;;;;;;;;5051634;28;20493;-62
2023/06/18 04:35:14;;;;;;;28.60;18.23;;;;;;;;;;5051044;28;20135;-61
2023/06/18 04:37:40;;;;;;;27.67;19.00;;;;;;;;;;5033816;28;20086;-61
2023/06/18 04:40:06;;;;;;;25.58;19.60;;;;;;;;;;5051905;28;20075;-62
2023/06/18 04:42:32;;;;;;;27.83;18.90;;;;;;;;;;5051834;28;20126;-62
2023/06/18 04:44:58;;;;;;;25.30;18.98;;;;;;;;;;5050854;28;20060;-61
2023/06/18 04:47:24;;;;;;;25.00;18.42;;;;;;;;;;5051255;28;20022;-62
2023/06/18 04:49:50;;;;;;;26.52;19.52;;;;;;;;;;5050982;28;20079;-62
2023/06/18 04:52:16;;;;;;;25.90;19.27;;;;;;;;;;5050923;28;20025;-62
2023/06/18 04:54:42;;;;;;;24.95;18.55;;;;;;;;;;5032983;28;20101;-63
2023/06/18 04:57:11;;;;;;;26.45;19.85;;;;;;;;;;5050938;28;20490;-63
2023/06/18 04:59:38;;;;;;;30.58;21.30;;;;;;;;;;5051007;28;20025;-62
2023/06/18 05:02:04;;;;;;;27.13;19.90;;;;;;;;;;5053532;28;20032;-62
2023/06/18 05:04:31;;;;;;;27.23;19.30;;;;;;;;;;5054191;28;20549;-62
2023/06/18 05:06:57;;;;;;;29.85;23.40;;;;;;;;;;5054263;28;20543;-62
2023/06/18 05:09:23;;;;;;;26.58;19.15;;;;;;;;;;5054471;28;20029;-62
2023/06/18 05:11:49;;;;;;;25.50;19.27;;;;;;;;;;5054157;28;20568;-64
2023/06/18 05:14:15;;;;;;;28.48;19.73;;;;;;;;;;5053917;28;20056;-62
2023/06/18 05:16:41;;;;;;;26.95;21.08;;;;;;;;;;5054426;28;20021;-62
2023/06/18 05:19:07;;;;;;;25.20;19.65;;;;;;;;;;5036496;28;20017;-62
2023/06/18 05:21:33;;;;;;;25.95;21.08;;;;;;;;;;5054302;28;20078;-61
2023/06/18 05:23:59;;;;;;;27.85;21.02;;;;;;;;;;5054097;28;20024;-64
2023/06/18 05:26:25;;;;;;;27.92;20.88;;;;;;;;;;5054048;28;20032;-61
2023/06/18 05:28:51;;;;;;;25.50;20.90;;;;;;;;;;5054134;28;20150;-61
2023/06/18 05:31:17;;;;;;;29.70;22.38;;;;;;;;;;5036335;28;20051;-62
2023/06/18 05:33:43;;;;;;;32.40;22.15;;;;;;;;;;5053982;28;20434;-61
2023/06/18 05:36:10;;;;;;;27.60;22.33;;;;;;;;;;5053711;28;20024;-62
2023/06/18 05:38:36;;;;;;;30.27;22.35;;;;;;;;;;5054042;28;20028;-62
2023/06/18 05:41:02;;;;;;;28.52;21.00;;;;;;;;;;5053867;28;20017;-62
2023/06/18 05:43:28;;;;;;;28.65;21.30;;;;;;;;;;5053974;28;20100;-61
2023/06/18 05:45:54;;;;;;;26.88;22.00;;;;;;;;;;5053445;28;20056;-62
2023/06/18 05:48:20;;;;;;;26.55;20.52;;;;;;;;;;5053833;28;20017;-61
2023/06/18 05:50:46;;;;;;;28.20;22.20;;;;;;;;;;5053681;28;20428;-62
2023/06/18 05:53:12;;;;;;;26.23;20.23;;;;;;;;;;5035706;28;20059;-61
2023/06/18 05:55:38;;;;;;;27.85;20.10;;;;;;;;;;5053324;28;20485;-62
2023/06/18 05:58:04;;;;;;;25.50;20.42;;;;;;;;;;5054165;28;20037;-62
2023/06/18 06:00:30;;;;;;;27.05;21.23;;;;;;;;;;5055135;28;20029;-62
2023/06/18 06:02:56;;;;;;;28.98;21.52;;;;;;;;;;5054993;28;20035;-62
2023/06/18 06:05:22;;;;;;;26.33;20.77;;;;;;;;;;5036935;28;20032;-61
2023/06/18 06:07:48;;;;;;;25.27;20.85;;;;;;;;;;5054699;28;20061;-62
2023/06/18 06:10:16;;;;;;;27.95;21.00;;;;;;;;;;5053449;28;20025;-62
2023/06/18 06:12:42;;;;;;;29.73;22.20;;;;;;;;;;5052225;28;20172;-62
2023/06/18 06:15:09;;;;;;;25.40;19.85;;;;;;;;;;5052871;28;20041;-62
2023/06/18 06:17:35;;;;;;;25.80;21.05;;;;;;;;;;5035489;28;20078;-62
2023/06/18 06:20:01;;;;;;;24.35;20.52;;;;;;;;;;5044442;28;20025;-61
2023/06/18 06:22:27;;;;;;;25.75;21.33;;;;;;;;;;5045953;28;20021;-62
2023/06/18 06:24:53;;;;;;;24.52;21.38;;;;;;;;;;5037507;28;20167;-61
2023/06/18 06:27:19;;;;;;;25.40;20.88;;;;;;;;;;5014809;28;20029;-62
2023/06/18 06:29:45;;;;;;;27.73;21.48;;;;;;;;;;5032682;28;20486;-61
2023/06/18 06:32:11;;;;;;;27.38;21.30;;;;;;;;;;5032699;28;20029;-61
2023/06/18 06:34:37;;;;;;;25.20;20.98;;;;;;;;;;5032575;28;20034;-60
2023/06/18 06:37:03;;;;;;;23.35;20.35;;;;;;;;;;5032704;28;20035;-62
2023/06/18 06:39:29;;;;;;;25.80;19.38;;;;;;;;;;5032533;28;20072;-62
2023/06/18 06:41:55;;;;;;;25.08;20.63;;;;;;;;;;5032563;28;20052;-62
2023/06/18 06:44:21;;;;;;;24.65;19.90;;;;;;;;;;5014111;28;20390;-62
2023/06/18 06:46:47;;;;;;;25.58;20.33;;;;;;;;;;5032491;28;20021;-62
2023/06/18 06:49:13;;;;;;;26.10;21.38;;;;;;;;;;5032548;28;20397;-62
2023/06/18 06:51:39;;;;;;;22.85;19.38;;;;;;;;;;5032370;28;20033;-63
2023/06/18 06:54:05;;;;;;;25.33;20.23;;;;;;;;;;5032147;28;20022;-62
2023/06/18 06:56:32;;;;;;;24.23;19.92;;;;;;;;;;5031990;28;20029;-62
2023/06/18 06:58:58;;;;;;;24.38;18.98;;;;;;;;;;5032297;28;20029;-63
2023/06/18 07:01:24;;;;;;;24.50;19.25;;;;;;;;;;5014700;28;20124;-61
2023/06/18 07:03:50;;;;;;;23.27;19.38;;;;;;;;;;5032224;28;20022;-61
2023/06/18 07:06:16;;;;;;;23.13;18.48;;;;;;;;;;5032233;28;20440;-62
2023/06/18 07:08:43;;;;;;;24.70;19.77;;;;;;;;;;5032276;28;20025;-62
2023/06/18 07:11:09;;;;;;;22.08;18.55;;;;;;;;;;5032152;28;20017;-63
2023/06/18 07:13:35;;;;;;;24.55;18.67;;;;;;;;;;5032112;28;20021;-63
2023/06/18 07:16:01;;;;;;;23.25;18.77;;;;;;;;;;5031752;28;20035;-62
2023/06/18 07:18:27;;;;;;;24.83;19.23;;;;;;;;;;5033280;28;20048;-63
2023/06/18 07:20:53;;;;;;;24.38;20.38;;;;;;;;;;5031662;28;20442;-58
2023/06/18 07:23:19;;;;;;;23.52;19.23;;;;;;;;;;5031511;28;20041;-56
2023/06/18 07:25:45;;;;;;;22.88;18.65;;;;;;;;;;5031373;28;20065;-56
2023/06/18 07:28:11;;;;;;;23.23;19.17;;;;;;;;;;5031873;28;20053;-57
2023/06/18 07:30:37;;;;;;;21.70;18.60;;;;;;;;;;5031691;28;20021;-58
2023/06/18 07:33:03;;;;;;;24.13;19.15;;;;;;;;;;5031914;28;20030;-49
2023/06/18 07:35:29;;;;;;;21.45;18.50;;;;;;;;;;5031377;28;20544;-48
2023/06/18 07:37:55;;;;;;;20.05;16.77;;;;;;;;;;5014029;28;20531;-48
2023/06/18 07:40:21;;;;;;;20.60;17.48;;;;;;;;;;5031594;28;20029;-47
2023/06/18 07:42:47;;;;;;;22.35;18.35;;;;;;;;;;5031543;28;20021;-52
2023/06/18 07:45:13;;;;;;;19.77;16.67;;;;;;;;;;5031238;28;20036;-49
2023/06/18 07:47:39;;;;;;;20.58;17.48;;;;;;;;;;5031460;28;20386;-51
2023/06/18 07:50:07;;;;;;;21.85;17.88;;;;;;;;;;5031297;28;20032;-54
2023/06/18 07:52:33;;;;;;;21.70;17.38;;;;;;;;;;5031240;28;20028;-52
2023/06/18 07:54:59;;;;;;;20.67;16.90;;;;;;;;;;5013150;28;20037;-48
2023/06/18 07:57:25;;;;;;;19.85;16.38;;;;;;;;;;5031328;28;20093;-48
2023/06/18 07:59:51;;;;;;;23.27;17.70;;;;;;;;;;5031343;28;20478;-46
2023/06/18 08:02:17;;;;;;;21.63;16.30;;;;;;;;;;5014058;28;20026;-48
2023/06/18 08:04:43;;;;;;;22.65;17.50;;;;;;;;;;5031028;28;20029;-51
2023/06/18 08:07:09;;;;;;;20.80;16.52;;;;;;;;;;5031228;28;20434;-49
2023/06/18 08:09:35;;;;;;;21.77;17.65;;;;;;;;;;5031182;28;20100;-47
2023/06/18 08:12:01;;;;;;;21.45;17.08;;;;;;;;;;5036495;28;20060;-53
2023/06/18 08:14:27;;;;;;;22.73;17.13;;;;;;;;;;5048465;28;20477;-50
2023/06/18 08:16:53;;;;;;;21.85;17.02;;;;;;;;;;5050860;28;20044;-48
2023/06/18 08:19:20;;;;;;;23.60;17.77;;;;;;;;;;5033264;28;20053;-47
2023/06/18 08:21:47;;;;;;;22.52;18.70;;;;;;;;;;5037853;28;20028;-47
2023/06/18 08:24:13;;;;;;;22.90;17.58;;;;;;;;;;5030776;28;20425;-49
2023/06/18 08:26:39;;;;;;;21.77;17.25;;;;;;;;;;5030703;28;20036;-52
2023/06/18 08:29:05;;;;;;;21.20;17.55;;;;;;;;;;5029577;28;20022;-50
2023/06/18 08:31:31;;;;;;;22.67;17.45;;;;;;;;;;5029702;28;20029;-49
2023/06/18 08:33:57;;;;;;;21.25;17.73;;;;;;;;;;5030745;28;20033;-49
2023/06/18 08:36:23;;;;;;;20.42;17.10;;;;;;;;;;5032501;28;20029;-52
2023/06/18 08:38:49;;;;;;;19.80;16.88;;;;;;;;;;5034985;28;20029;-49
2023/06/18 08:41:15;;;;;;;24.42;17.42;;;;;;;;;;5034845;28;20029;-48
2023/06/18 08:43:41;;;;;;;20.38;17.20;;;;;;;;;;5017107;28;20022;-52
2023/06/18 08:46:12;;;;;;;22.08;16.85;;;;;;;;;;5034262;28;20022;-51
2023/06/18 08:48:45;;;;;;;21.50;17.45;;;;;;;;;;5034746;28;20025;-49
2023/06/18 08:51:11;;;;;;;19.85;16.63;;;;;;;;;;5034670;28;20021;-47
2023/06/18 08:53:43;;;;;;;21.63;17.55;;;;;;;;;;5034595;28;20025;-53
2023/06/18 08:56:09;;;;;;;19.88;17.00;;;;;;;;;;5016570;28;20486;-51
2023/06/18 08:58:40;;;;;;;20.45;17.48;;;;;;;;;;5035242;28;20627;-50
2023/06/18 09:01:07;;;;;;;20.90;17.40;;;;;;;;;;5034682;28;20032;-49
2023/06/18 09:03:33;;;;;;;20.45;16.60;;;;;;;;;;5034617;28;20033;-49
2023/06/18 09:06:00;;;;;;;19.80;16.80;;;;;;;;;;5033961;28;20103;-52
2023/06/18 09:08:26;;;;;;;22.05;17.30;;;;;;;;;;5034359;28;20100;-48
2023/06/18 09:10:55;;;;;;;20.42;17.20;;;;;;;;;;5034511;28;20509;-49
2023/06/18 09:13:21;;;;;;;19.48;16.15;;;;;;;;;;5034338;28;20097;-47
2023/06/18 09:15:47;;;;;;;21.80;16.70;;;;;;;;;;5033806;28;20508;-50
2023/06/18 09:18:13;;;;;;;26.58;16.33;;;;;;;;;;5034218;28;20025;-50
2023/06/18 09:20:40;;;;;;;20.30;16.60;;;;;;;;;;5034410;28;20025;-50
2023/06/18 09:23:10;;;;;;;19.80;16.52;;;;;;;;;;5033756;28;20064;-48
2023/06/18 09:25:36;;;;;;;21.35;17.27;;;;;;;;;;5033718;28;20021;-49
2023/06/18 09:28:02;;;;;;;20.13;16.00;;;;;;;;;;5034055;28;20037;-51
2023/06/18 09:30:29;;;;;;;19.85;15.50;;;;;;;;;;5034030;28;20094;-49
2023/06/18 09:32:59;;;;;;;20.58;16.05;;;;;;;;;;5034209;28;20624;-47
2023/06/18 09:35:26;;;;;;;20.58;15.82;;;;;;;;;;5033692;28;20060;-50
2023/06/18 09:37:52;;;;;;;18.75;15.65;;;;;;;;;;5033801;28;20104;-51
2023/06/18 09:40:20;;;;;;;18.95;15.90;;;;;;;;;;5034047;28;20044;-49
2023/06/18 09:42:48;;;;;;;19.97;16.03;;;;;;;;;;5033993;28;20021;-52
2023/06/18 09:45:15;;;;;;;20.58;16.00;;;;;;;;;;5033348;28;20037;-47
2023/06/18 09:47:42;;;;;;;22.73;16.40;;;;;;;;;;5033465;28;20030;-48
2023/06/18 09:50:09;;;;;;;20.52;15.75;;;;;;;;;;5016041;28;20025;-53
2023/06/18 09:52:45;;;;;;;18.30;15.77;;;;;;;;;;5033685;28;20025;-52
2023/06/18 09:55:31;;;;;;;19.83;16.13;;;;;;;;;;5033431;28;20067;-53
2023/06/18 09:57:58;;;;;;;18.50;15.23;;;;;;;;;;5033504;28;20049;-47
2023/06/18 10:00:24;;;;;;;21.35;15.75;;;;;;;;;;5015716;28;20025;-53
2023/06/18 10:02:50;;;;;;;22.17;15.30;;;;;;;;;;5033662;28;20052;-54
2023/06/18 10:05:16;;;;;;;20.10;16.65;;;;;;;;;;5047503;28;20029;-53
2023/06/18 10:07:43;;;;;;;20.42;16.60;;;;;;;;;;5048513;28;20569;-49
2023/06/18 10:10:13;;;;;;;21.15;16.38;;;;;;;;;;5052929;28;20014;-50
2023/06/18 10:12:43;;;;;;;19.92;15.68;;;;;;;;;;5043274;28;20060;-54
2023/06/18 10:15:12;;;;;;;20.23;16.42;;;;;;;;;;5039942;28;20040;-54
2023/06/18 10:17:39;;;;;;;19.42;15.18;;;;;;;;;;5012520;28;20039;-53
2023/06/18 10:20:05;;;;;;;20.10;16.08;;;;;;;;;;5050245;28;20573;-48
2023/06/18 10:22:34;;;;;;;19.83;16.30;;;;;;;;;;5044468;28;20413;-50
2023/06/18 10:25:05;;;;;;;20.92;16.85;;;;;;;;;;5042940;28;20474;-49
2023/06/18 10:27:33;;;;;;;19.27;17.08;;;;;;;;;;5047180;28;20550;-47
2023/06/18 10:29:59;;;;;;;;;;;;;;;;;;5052830;28;20078;-46
2023/06/18 10:32:27;;;;;;;20.13;16.90;;;;;;;;;;5053560;28;20385;-53
2023/06/18 10:34:53;;;;;;;20.15;16.30;;;;;;;;;;5054869;28;20048;-48
2023/06/18 10:37:20;;;;;;;18.50;15.55;;;;;;;;;;5057954;28;20029;-48
2023/06/18 10:39:47;;;;;;;17.95;14.88;;;;;;;;;;5058896;28;20040;-49
2023/06/18 10:42:16;;;;;;;19.50;15.27;;;;;;;;;;5027177;28;20073;-51
2023/06/18 10:44:48;;;;;;;18.67;14.77;;;;;;;;;;5018028;28;20068;-49
2023/06/18 10:47:27;;;;;;;19.30;15.15;;;;;;;;;;5017355;28;20053;-52
2023/06/18 10:50:08;;;;;;;17.77;15.18;;;;;;;;;;5016143;28;20029;-50
2023/06/18 10:52:38;;;;;;;18.20;15.45;;;;;;;;;;5014291;28;20026;-46
2023/06/18 10:55:07;;;;;;;18.88;15.20;;;;;;;;;;5036713;28;20031;-50
2023/06/18 10:58:00;;;;;;;20.02;15.35;;;;;;;;;;5052650;28;20103;-59
2023/06/18 11:00:30;;;;;;;18.88;15.48;;;;;;;;;;5049594;28;20037;-61
2023/06/18 11:02:59;;;;;;;19.50;15.50;;;;;;;;;;5016481;28;20037;-61
2023/06/18 11:05:34;;;;;;;20.30;15.25;;;;;;;;;;4994645;28;20425;-59
2023/06/18 11:08:04;;;;;;;19.63;15.38;;;;;;;;;;5046882;28;20116;-61
2023/06/18 11:10:35;;;;;;;17.80;14.63;;;;;;;;;;5029329;28;20556;-62
2023/06/18 11:13:04;;;;;;;18.98;15.65;;;;;;;;;;5051359;28;20547;-61
2023/06/18 11:15:31;;;;;;;19.90;15.93;;;;;;;;;;5051262;28;20116;-61
2023/06/18 11:18:01;;;;;;;21.25;16.15;;;;;;;;;;5037896;28;20033;-62
2023/06/18 11:20:27;;;;;;;20.65;16.52;;;;;;;;;;5029498;28;20021;-62
2023/06/18 11:22:57;;;;;;;19.35;16.20;;;;;;;;;;5029515;28;20029;-61
2023/06/18 11:25:25;;;;;;;21.58;17.08;;;;;;;;;;5030999;28;20053;-61
2023/06/18 11:27:53;;;;;;;19.92;15.70;;;;;;;;;;5031717;28;20033;-62
2023/06/18 11:30:19;;;;;;;19.55;16.00;;;;;;;;;;5031651;28;20025;-62
2023/06/18 11:32:46;;;;;;;18.95;16.70;;;;;;;;;;5031207;28;20479;-60
2023/06/18 11:35:12;;;;;;;21.23;16.58;;;;;;;;;;5031339;28;20091;-61
2023/06/18 11:37:39;;;;;;;19.05;16.48;;;;;;;;;;5031812;28;20108;-63
2023/06/18 11:40:07;;;;;;;18.60;15.95;;;;;;;;;;5032268;28;20026;-63
2023/06/18 11:42:33;;;;;;;18.48;15.85;;;;;;;;;;5029943;28;20025;-63
2023/06/18 11:45:04;;;;;;;19.35;16.23;;;;;;;;;;5013629;28;20053;-62
2023/06/18 11:47:30;;;;;;;18.30;15.80;;;;;;;;;;5031478;28;20489;-63
2023/06/18 11:49:57;;;;;;;19.38;16.20;;;;;;;;;;5031333;28;20018;-62
2023/06/18 11:52:24;;;;;;;19.13;15.07;;;;;;;;;;5031359;28;20040;-62
2023/06/18 11:54:50;;;;;;;18.83;15.52;;;;;;;;;;5031495;28;20512;-62
2023/06/18 11:57:17;;;;;;;18.55;15.40;;;;;;;;;;5026854;28;20081;-61
2023/06/18 11:59:44;;;;;;;20.10;16.10;;;;;;;;;;5011857;28;20410;-63
2023/06/18 12:02:17;;;;;;;19.13;15.15;;;;;;;;;;5011494;28;20109;-64
2023/06/18 12:04:44;;;;;;;18.83;15.70;;;;;;;;;;5011379;28;20030;-64
2023/06/18 12:07:17;;;;;;;19.38;16.08;;;;;;;;;;5011753;28;20033;-62
2023/06/18 12:09:43;;;;;;;18.85;15.98;;;;;;;;;;5012174;28;20033;-61
2023/06/18 12:12:09;;;;;;;18.38;15.98;;;;;;;;;;5014861;28;20022;-61
2023/06/18 12:14:40;;;;;;;19.70;16.40;;;;;;;;;;5031737;28;20029;-59
2023/06/18 12:17:15;;;;;;;18.23;15.50;;;;;;;;;;5035073;28;20021;-61
2023/06/18 12:19:43;;;;;;;18.38;15.57;;;;;;;;;;5033108;28;20144;-62
2023/06/18 12:22:09;;;;;;;19.15;15.23;;;;;;;;;;5034617;28;20490;-61
2023/06/18 12:24:36;;;;;;;20.10;15.98;;;;;;;;;;5034301;28;20385;-62
2023/06/18 12:27:02;;;;;;;17.95;15.35;;;;;;;;;;5034867;28;20021;-63
2023/06/18 12:29:28;;;;;;;18.92;15.82;;;;;;;;;;5034943;28;20445;-62
2023/06/18 12:32:04;;;;;;;18.35;15.70;;;;;;;;;;5031568;28;20026;-62
2023/06/18 12:34:34;;;;;;;18.50;15.98;;;;;;;;;;5017366;28;20026;-62
2023/06/18 12:37:00;;;;;;;19.10;15.70;;;;;;;;;;5034518;28;20029;-62
2023/06/18 12:39:26;;;;;;;19.80;16.30;;;;;;;;;;5034936;28;20025;-61
2023/06/18 12:41:52;;;;;;;19.42;15.73;;;;;;;;;;5034389;28;20041;-63
2023/06/18 12:44:19;;;;;;;18.20;16.20;;;;;;;;;;5033434;28;20026;-63
2023/06/18 12:46:45;;;;;;;18.20;15.02;;;;;;;;;;5032038;28;20370;-62
2023/06/18 12:49:14;;;;;;;19.17;15.23;;;;;;;;;;5032713;28;20551;-59
2023/06/18 12:51:42;;;;;;;19.80;15.70;;;;;;;;;;5024245;28;20059;-62
2023/06/18 12:54:18;;;;;;;19.90;16.48;;;;;;;;;;5030891;28;20032;-61
2023/06/18 12:56:51;;;;;;;18.13;15.77;;;;;;;;;;5029290;28;20497;-62
2023/06/18 12:59:21;;;;;;;17.67;15.30;;;;;;;;;;5033465;28;20029;-60
2023/06/18 13:01:47;;;;;;;20.00;15.88;;;;;;;;;;5031462;28;20029;-61
2023/06/18 13:04:17;;;;;;;18.92;15.38;;;;;;;;;;5032397;28;20033;-62
2023/06/18 13:06:44;;;;;;;17.92;15.43;;;;;;;;;;5033971;28;20040;-61
2023/06/18 13:09:10;;;;;;;18.17;15.32;;;;;;;;;;5033783;28;20505;-63
2023/06/18 13:11:36;;;;;;;18.77;15.82;;;;;;;;;;5030600;28;20113;-60
2023/06/18 13:14:03;;;;;;;19.02;15.73;;;;;;;;;;5013721;28;20030;-62
2023/06/18 13:16:29;;;;;;;18.85;15.80;;;;;;;;;;5013926;28;20044;-61
2023/06/18 13:18:55;;;;;;;19.60;16.63;;;;;;;;;;5013965;28;20034;-60
2023/06/18 13:21:21;;;;;;;18.75;15.95;;;;;;;;;;5023619;28;20045;-61
2023/06/18 13:23:47;;;;;;;18.15;15.48;;;;;;;;;;5033324;28;20513;-61
2023/06/18 13:26:14;;;;;;;20.17;16.73;;;;;;;;;;5032443;28;20037;-61
2023/06/18 13:28:40;;;;;;;18.02;15.45;;;;;;;;;;5012751;28;20021;-63
2023/06/18 13:31:07;;;;;;;19.85;16.20;;;;;;;;;;5031589;28;20029;-64
2023/06/18 13:33:33;;;;;;;18.77;15.55;;;;;;;;;;5032750;28;20022;-62
2023/06/18 13:35:59;;;;;;;19.45;15.48;;;;;;;;;;5033182;28;20029;-62
2023/06/18 13:38:25;;;;;;;19.02;15.38;;;;;;;;;;5032496;28;20402;-61
2023/06/18 13:40:51;;;;;;;19.55;15.45;;;;;;;;;;5042635;28;20021;-60
2023/06/18 13:43:18;;;;;;;18.35;15.05;;;;;;;;;;5038009;28;20032;-61
2023/06/18 13:45:44;;;;;;;18.67;14.98;;;;;;;;;;5052143;28;20021;-61
2023/06/18 13:48:12;;;;;;;20.38;16.00;;;;;;;;;;5052522;28;20021;-61
2023/06/18 13:50:38;;;;;;;19.65;16.00;;;;;;;;;;5030037;28;20392;-62
2023/06/18 13:53:04;;;;;;;18.52;15.65;;;;;;;;;;5051884;28;20032;-62
2023/06/18 13:55:30;;;;;;;18.73;15.77;;;;;;;;;;5049321;28;20121;-62
2023/06/18 13:57:56;;;;;;;20.90;16.08;;;;;;;;;;5052730;28;20519;-61
2023/06/18 14:00:22;;;;;;;18.85;16.05;;;;;;;;;;5047015;28;20033;-61
2023/06/18 14:02:49;;;;;;;18.83;15.80;;;;;;;;;;5018577;28;20030;-62
2023/06/18 14:05:15;;;;;;;19.17;15.70;;;;;;;;;;5012904;28;20482;-62
2023/06/18 14:07:41;;;;;;;18.88;16.23;;;;;;;;;;4995982;28;20036;-64
2023/06/18 14:10:07;;;;;;;20.87;16.57;;;;;;;;;;4651347;28;10000452;-61
2023/06/18 14:12:34;;;;;;;18.13;15.35;;;;;;;;;;5021016;28;20593;-62
2023/06/18 14:15:00;;;;;;;18.60;15.52;;;;;;;;;;5023084;28;20402;-62